Terminal Aerodrome Forecast
Issued by NWS

Home | Current Version | Previous Version | Graphics & Text | Print | Product List | Glossary On
Versions: 1 2 3 4 5 6 7 8 9 10 11 12 13 14 15 16 17 18
521
FTUS41 KCLE 241121
TAFFDY
TAF
KFDY 241121Z 2412/2512 09010KT P6SM VCSH OVC050
     FM241400 10010KT 5SM -SHRA BR OVC035
     FM242000 07009KT 4SM -SHRA BR SCT007 OVC015
      TEMPO 2423/2503 2SM -RA BR BKN007 OVC015
     FM250300 04005KT 3SM BR SCT003 OVC007
     FM251000 35007KT P6SM OVC003=

USA.gov is the U.S. government's official web portal to all federal, state and local government web resources and services.